メインページ
METAR-TAF:

METAR-TAF

空港 :

イースター島, チリ

マタベリ国際空港

緯度: 27-09S, 経度: 109-25W, 海抜: 51m

現時点の気象観測

当レポートは16分前の06:00(UTC)に作成
の風 10kt
気温 23°C
湿度 78%
気圧 1022 hPa
視程10km以上
高度2000ftの雲は散在している

METAR: SCIP 280600Z 08010KT 9999 SCT020 23/19 Q1022 NOSIG

時間: 01:16 (06:16 UTC)

予報

当レポートは7時間26分前の22:50(UTC)に作成
予報は28日の 00時(UTC)から 29日の 00時(UTC)まで有効
東/南東の風 13kt
視程10km以上
高度2000ftの雲は散在している
28日の 03時(UTC)から 28日の 05時(UTC)まで徐々に
の風 8kt
28日の 06時(UTC)から 28日の 13時(UTC)まで一時的に
の風 13kt
視程: 6000m
高度1600ftの雲は散在している
高度2500ftの千切れ雲あり
弱いにわか雨
28日の 14時(UTC)から 28日の 16時(UTC)まで徐々に
の風 15kt
高度2000ftの雲は散在している
28日の 21時(UTC)から 29日の 00時(UTC)まで一時的に
の風 20kt
視程: 7000m
高度1600ftの雲は散在している
高度2500ftの千切れ雲あり
弱いにわか雨

TAF: SCIP 272250Z 2800/2900 11013KT 9999 SCT020 TN21/2810Z TX27/2820Z BECMG 2803/2805 10008KT TEMPO 2806/2813 09013KT 6000 -SHRA SCT016 BKN025 BECMG 2814/2816 09015KT SCT020 TEMPO 2821/2900 09020KT 7000 -SHRA SCT016 BKN025

4,000以上の空港の気象観測と天気予報(METAR報とTAF報)

利用可能な観測所は地図上に黄色い丸と赤い丸で示す。

丸の上にカーソルを重ねると観測所名を参照できる。

次にクリックすると気象観測と天気予報を参照できる。

マップの切り替え:黒色「×」印の緑ボタンをクリックして拡大、「-」印の緑ボタンをクリックして縮小、緑色の三角印をクリックして隣りの地図に切り替え


METAR-TAF: